Terminal Aerodrome Forecast
Issued by NWS

Home | Current Version | Previous Version | Text Only | Print | Product List | Glossary On
Versions: 1 2 3 4 5 6 7 8 9 10 11 12 13 14 15 16 17 18 19 20 21 22 23 24 25 26 27 28 29 30
000
FTUS45 KGJT 072335
TAFASE
TAF
KASE 072335Z 0800/0824 34005KT P6SM -SHRA VCTS SCT050 BKN080CB
     FM080100 17006KT P6SM -SHRA VCTS SCT050CB OVC070
     FM080800 20003KT P6SM VCSH FEW050 BKN080
     FM081700 36008KT P6SM VCTS OVC030CB=

USA.gov is the U.S. government's official web portal to all federal, state and local government web resources and services.